createdAt,value
2022-11-20T00:00:24.661Z,100.03
2022-11-20T00:02:53.416Z,94.60
2022-11-20T00:05:21.783Z,148.60
2022-11-20T00:07:49.210Z,78.82
2022-11-20T00:10:16.842Z,94.07
2022-11-20T00:12:44.256Z,103.70
2022-11-20T00:15:12.076Z,107.05
2022-11-20T00:17:39.484Z,128.68
2022-11-20T00:20:09.411Z,84.72
2022-11-20T00:22:36.823Z,65.70
2022-11-20T00:25:04.484Z,78.20
2022-11-20T00:27:31.917Z,83.53
2022-11-20T00:29:59.343Z,47.75
2022-11-20T00:32:27.039Z,106.35
2022-11-20T00:34:54.450Z,55.28
2022-11-20T00:37:23.274Z,110.68
2022-11-20T00:39:50.789Z,86.55
2022-11-20T00:42:18.219Z,83.43
2022-11-20T00:44:45.622Z,86.65
2022-11-20T00:47:13.061Z,81.50
2022-11-20T00:49:40.554Z,43.80
2022-11-20T00:52:08.000Z,44.15
2022-11-20T00:54:36.790Z,66.85
2022-11-20T00:57:04.269Z,75.13
2022-11-20T00:59:31.726Z,54.25
2022-11-20T01:01:59.150Z,78.50
2022-11-20T01:04:26.581Z,38.90
2022-11-20T01:06:54.026Z,25.13
2022-11-20T01:09:21.865Z,46.25
2022-11-20T01:11:51.080Z,53.03
2022-11-20T01:14:20.618Z,42.65
2022-11-20T01:16:50.878Z,41.72
2022-11-20T01:19:20.898Z,40.83
2022-11-20T01:21:51.522Z,40.65
2022-11-20T01:24:21.914Z,23.38
2022-11-20T01:26:52.119Z,34.15
2022-11-20T01:29:21.550Z,31.98
2022-11-20T01:31:49.306Z,27.98
2022-11-20T01:34:20.222Z,41.97
2022-11-20T01:36:48.264Z,59.63
2022-11-20T01:39:18.514Z,39.15
2022-11-20T01:42:09.635Z,64.75
2022-11-20T01:44:54.243Z,41.75
2022-11-20T01:47:32.066Z,33.63
2022-11-20T01:50:04.893Z,34.97
2022-11-20T01:52:36.694Z,48.22
2022-11-20T01:55:08.809Z,84.03
2022-11-20T01:57:37.670Z,130.05
2022-11-20T02:00:11.314Z,111.95
2022-11-20T02:02:40.969Z,90.45
2022-11-20T02:05:16.725Z,63.78
2022-11-20T02:07:45.011Z,51.45
2022-11-20T02:10:13.504Z,62.13
2022-11-20T02:12:58.673Z,41.33
2022-11-20T02:15:30.255Z,37.83
2022-11-20T02:17:58.130Z,35.65
2022-11-20T02:20:25.668Z,38.58
2022-11-20T02:22:58.936Z,27.02
2022-11-20T02:25:30.354Z,31.75
2022-11-20T02:27:58.056Z,31.00
2022-11-20T02:30:25.669Z,28.40
2022-11-20T02:32:54.198Z,54.42
2022-11-20T02:35:47.395Z,29.45
2022-11-20T02:38:16.176Z,41.05
2022-11-20T02:40:44.975Z,40.92
2022-11-20T02:43:12.790Z,24.70
2022-11-20T02:45:40.324Z,35.13
2022-11-20T02:48:09.147Z,31.80
2022-11-20T02:50:39.466Z,31.52
2022-11-20T02:53:06.921Z,40.00
2022-11-20T02:55:34.722Z,28.33
2022-11-20T02:58:03.721Z,24.98
2022-11-20T03:00:31.351Z,31.13
2022-11-20T03:02:58.789Z,22.33
2022-11-20T03:05:26.229Z,41.08
2022-11-20T03:07:53.631Z,42.92
2022-11-20T03:10:21.091Z,30.80
2022-11-20T03:12:48.508Z,35.70
2022-11-20T03:15:17.285Z,26.85
2022-11-20T03:17:44.723Z,24.88
2022-11-20T03:20:12.996Z,21.30
2022-11-20T03:22:40.439Z,29.17
2022-11-20T03:25:08.715Z,20.77
2022-11-20T03:27:36.825Z,23.42
2022-11-20T03:30:06.290Z,17.77
2022-11-20T03:32:35.082Z,18.20
2022-11-20T03:35:02.785Z,15.80
2022-11-20T03:37:30.206Z,37.72
2022-11-20T03:39:57.615Z,28.17
2022-11-20T03:42:42.537Z,32.17
2022-11-20T03:45:10.537Z,32.42
2022-11-20T03:47:39.324Z,27.92
2022-11-20T03:50:07.669Z,19.08
2022-11-20T03:52:35.133Z,23.00
2022-11-20T03:55:02.653Z,36.72
2022-11-20T03:57:30.076Z,36.55
2022-11-20T03:59:57.522Z,24.55
2022-11-20T04:02:24.986Z,25.50
2022-11-20T04:04:53.897Z,55.17
2022-11-20T04:07:21.395Z,52.60
2022-11-20T04:09:49.131Z,57.22
2022-11-20T04:12:16.610Z,44.92
2022-11-20T04:14:44.041Z,49.80
2022-11-20T04:17:11.479Z,50.85
2022-11-20T04:19:38.927Z,49.05
2022-11-20T04:22:07.740Z,71.10
2022-11-20T04:24:35.164Z,97.10
2022-11-20T04:27:02.604Z,77.97
2022-11-20T04:29:30.014Z,59.83
2022-11-20T04:31:57.429Z,68.78
2022-11-20T04:34:24.830Z,84.10
2022-11-20T04:36:52.258Z,89.20
2022-11-20T04:39:21.229Z,54.65
2022-11-20T04:41:48.854Z,69.38
2022-11-20T04:44:16.264Z,55.15
2022-11-20T04:46:44.350Z,85.35
2022-11-20T04:49:12.814Z,77.05
2022-11-20T04:51:40.359Z,47.10
2022-11-20T04:54:07.785Z,48.00
2022-11-20T04:56:36.522Z,61.30
2022-11-20T04:59:04.631Z,51.55
2022-11-20T05:01:33.446Z,41.47
2022-11-20T05:04:00.974Z,55.63
2022-11-20T05:06:28.381Z,40.97
2022-11-20T05:08:55.817Z,25.88
2022-11-20T05:11:23.682Z,17.48
2022-11-20T05:13:53.646Z,19.08
2022-11-20T05:16:23.533Z,16.77
2022-11-20T05:18:52.284Z,15.65
2022-11-20T05:21:20.457Z,13.32
2022-11-20T05:23:48.801Z,12.27
2022-11-20T05:26:18.807Z,13.13
2022-11-20T05:28:46.641Z,13.38
2022-11-20T05:31:20.683Z,13.27
2022-11-20T05:33:50.957Z,12.00
2022-11-20T05:36:19.030Z,10.18
2022-11-20T05:38:50.344Z,8.65
2022-11-20T05:41:20.002Z,8.30
2022-11-20T05:43:48.698Z,12.60
2022-11-20T05:46:22.309Z,7.40
2022-11-20T05:48:52.420Z,8.23
2022-11-20T05:51:21.362Z,6.40
2022-11-20T05:53:49.043Z,7.18
2022-11-20T05:56:18.650Z,8.27
2022-11-20T05:58:47.061Z,3.83
2022-11-20T06:01:17.715Z,6.15
2022-11-20T06:03:48.185Z,4.43
2022-11-20T06:06:16.985Z,5.80
2022-11-20T06:08:45.115Z,5.60
2022-11-20T06:11:14.176Z,4.32
2022-11-20T06:13:42.799Z,5.10
2022-11-20T06:16:11.489Z,4.68
2022-11-20T06:18:40.633Z,3.65
2022-11-20T06:21:10.045Z,1.70
2022-11-20T06:23:38.088Z,4.88
2022-11-20T06:26:08.058Z,3.20
2022-11-20T06:28:36.258Z,3.67
2022-11-20T06:31:04.071Z,2.67
2022-11-20T06:33:31.992Z,1.75
2022-11-20T06:36:05.886Z,2.28
2022-11-20T06:38:38.049Z,1.70
2022-11-20T06:41:05.718Z,4.13
2022-11-20T06:43:33.210Z,2.88
2022-11-20T06:46:01.272Z,2.30
2022-11-20T06:48:29.977Z,2.90
2022-11-20T06:50:57.959Z,2.30
2022-11-20T06:53:26.972Z,3.60
2022-11-20T06:55:57.940Z,2.70
2022-11-20T06:58:28.086Z,3.50
2022-11-20T07:00:55.573Z,6.38
2022-11-20T07:03:22.975Z,3.08
2022-11-20T07:05:50.376Z,3.05
2022-11-20T07:08:17.832Z,3.83
2022-11-20T07:10:46.566Z,3.55
2022-11-20T07:13:13.977Z,4.22
2022-11-20T07:15:41.376Z,4.22
2022-11-20T07:18:08.780Z,4.15
2022-11-20T07:20:36.214Z,3.78
2022-11-20T07:23:03.638Z,4.00
2022-11-20T07:25:31.485Z,3.78
2022-11-20T07:28:01.232Z,4.13
2022-11-20T07:30:29.453Z,4.28
2022-11-20T07:32:57.984Z,5.82
2022-11-20T07:35:26.073Z,5.13
2022-11-20T07:37:53.479Z,3.45
2022-11-20T07:40:21.617Z,3.45
2022-11-20T07:42:50.098Z,3.28
2022-11-20T07:45:19.486Z,6.15
2022-11-20T07:47:46.913Z,5.32
2022-11-20T07:50:14.809Z,4.07
2022-11-20T07:52:42.257Z,5.07
2022-11-20T07:55:11.014Z,5.18
2022-11-20T07:57:38.484Z,5.75
2022-11-20T08:00:08.088Z,5.65
2022-11-20T08:02:38.764Z,4.70
2022-11-20T08:05:07.043Z,10.02
2022-11-20T08:07:37.821Z,8.50
2022-11-20T08:10:05.768Z,10.88
2022-11-20T08:12:50.905Z,11.35
2022-11-20T08:15:18.354Z,10.55
2022-11-20T08:18:08.249Z,13.50
2022-11-20T08:20:34.558Z,11.50
2022-11-20T08:23:02.755Z,14.88
2022-11-20T08:25:30.698Z,15.73
2022-11-20T08:28:00.419Z,16.95
2022-11-20T08:30:29.307Z,18.15
2022-11-20T08:33:03.100Z,17.08
2022-11-20T08:35:30.524Z,20.02
2022-11-20T08:37:57.956Z,13.05
2022-11-20T08:40:25.352Z,16.65
2022-11-20T08:42:52.961Z,17.08
2022-11-20T08:45:21.092Z,16.60
2022-11-20T08:47:48.747Z,18.67
2022-11-20T08:50:18.816Z,13.95
2022-11-20T08:52:46.332Z,16.77
2022-11-20T08:55:14.128Z,18.40
2022-11-20T08:57:41.750Z,18.17
2022-11-20T09:00:12.964Z,20.42
2022-11-20T09:02:40.746Z,19.52
2022-11-20T09:05:08.533Z,17.73
2022-11-20T09:07:37.309Z,18.25
2022-11-20T09:12:53.884Z,17.58
2022-11-20T09:15:21.766Z,15.98
2022-11-20T09:17:52.863Z,17.55
2022-11-20T09:20:20.327Z,19.27
2022-11-20T09:22:49.254Z,16.75
2022-11-20T09:25:18.382Z,18.27
2022-11-20T09:27:46.949Z,16.70
2022-11-20T09:30:15.269Z,13.98
2022-11-20T09:32:43.073Z,13.75
2022-11-20T09:35:11.233Z,11.23
2022-11-20T09:37:38.667Z,15.40
2022-11-20T09:40:14.541Z,12.00
2022-11-20T09:42:46.914Z,10.77
2022-11-20T09:45:25.165Z,10.52
2022-11-20T09:48:07.713Z,9.70
2022-11-20T09:50:40.186Z,8.43
2022-11-20T09:53:15.348Z,9.30
2022-11-20T09:55:44.541Z,8.82
2022-11-20T09:58:22.050Z,10.10
2022-11-20T10:00:50.412Z,8.38
2022-11-20T10:03:28.592Z,12.73
2022-11-20T10:05:56.909Z,12.35
2022-11-20T10:08:31.247Z,10.38
2022-11-20T10:11:06.493Z,11.23
2022-11-20T10:13:47.556Z,13.85
2022-11-20T10:16:24.020Z,11.48
2022-11-20T10:19:08.194Z,10.85
2022-11-20T10:21:45.764Z,7.90
2022-11-20T10:24:31.394Z,12.68
2022-11-20T10:27:14.921Z,9.02
2022-11-20T10:29:47.453Z,9.23
2022-11-20T10:32:18.281Z,8.13
2022-11-20T10:34:52.442Z,13.80
2022-11-20T10:37:24.292Z,11.55
2022-11-20T10:39:57.390Z,8.85
2022-11-20T10:42:32.882Z,10.63
2022-11-20T10:45:12.100Z,12.48
2022-11-20T10:47:39.514Z,13.15
2022-11-20T10:50:15.381Z,11.00
2022-11-20T10:52:56.824Z,12.50
2022-11-20T10:55:32.305Z,11.90
2022-11-20T10:58:10.876Z,10.10
2022-11-20T11:00:38.318Z,10.20
2022-11-20T11:03:22.206Z,9.55
2022-11-20T11:05:53.734Z,10.45
2022-11-20T11:08:21.764Z,10.13
2022-11-20T11:10:55.617Z,11.23
2022-11-20T11:13:26.118Z,9.48
2022-11-20T11:15:54.374Z,11.20
2022-11-20T11:18:26.742Z,12.30
2022-11-20T11:20:55.469Z,9.07
2022-11-20T11:23:33.268Z,9.10
2022-11-20T11:26:02.912Z,7.13
2022-11-20T11:28:32.650Z,6.15
2022-11-20T11:31:00.119Z,8.93
2022-11-20T11:33:29.254Z,6.70
2022-11-20T11:35:59.028Z,3.17
2022-11-20T11:38:32.258Z,4.60
2022-11-20T11:41:00.170Z,6.38
2022-11-20T11:43:50.948Z,3.90
2022-11-20T11:46:29.438Z,6.78
2022-11-20T11:48:58.954Z,6.45
2022-11-20T11:51:30.305Z,5.50
2022-11-20T11:54:00.478Z,4.40
2022-11-20T11:56:29.294Z,5.57
2022-11-20T11:59:02.723Z,2.85
2022-11-20T12:01:35.819Z,5.57
2022-11-20T12:04:10.376Z,3.83
2022-11-20T12:06:41.056Z,5.45
2022-11-20T12:09:11.892Z,7.55
2022-11-20T12:11:45.571Z,5.20
2022-11-20T12:14:20.536Z,2.88
2022-11-20T12:16:48.194Z,4.90
2022-11-20T12:19:16.177Z,2.63
2022-11-20T12:21:59.867Z,3.03
2022-11-20T12:24:47.636Z,3.90
2022-11-20T12:27:38.103Z,4.18
2022-11-20T12:30:10.997Z,2.97
2022-11-20T12:32:55.094Z,3.50
2022-11-20T12:35:37.330Z,3.22
2022-11-20T12:38:22.172Z,3.67
2022-11-20T12:41:01.533Z,3.83
2022-11-20T12:43:48.989Z,4.70
2022-11-20T12:46:29.339Z,6.45
2022-11-20T12:49:30.929Z,4.53
2022-11-20T12:52:18.193Z,3.05
2022-11-20T12:55:00.907Z,3.40
2022-11-20T12:57:40.000Z,6.75
2022-11-20T13:00:15.969Z,4.53
2022-11-20T13:03:11.225Z,2.30
2022-11-20T13:05:51.268Z,3.75
2022-11-20T13:08:24.564Z,2.55
2022-11-20T13:10:58.720Z,14.73
2022-11-20T13:13:33.278Z,1.55
2022-11-20T13:16:07.941Z,14.98
2022-11-20T13:18:42.610Z,4.63
2022-11-20T13:21:17.805Z,4.32
2022-11-20T13:23:45.543Z,1.42
2022-11-20T13:26:19.852Z,6.05
2022-11-20T13:28:48.853Z,3.45
2022-11-20T13:31:32.554Z,3.50
2022-11-20T13:34:03.155Z,4.22
2022-11-20T13:36:35.875Z,1.58
2022-11-20T13:39:04.043Z,2.33
2022-11-20T13:41:36.053Z,1.55
2022-11-20T13:44:12.581Z,1.58
2022-11-20T13:46:44.225Z,2.90
2022-11-20T13:49:20.335Z,1.55
2022-11-20T13:51:51.410Z,3.00
2022-11-20T13:54:48.450Z,3.05
2022-11-20T13:57:38.264Z,9.63
2022-11-20T14:00:14.068Z,4.28
2022-11-20T14:02:42.553Z,4.03
2022-11-20T14:05:21.101Z,1.92
2022-11-20T14:07:50.306Z,2.55
2022-11-20T14:10:31.407Z,2.70
2022-11-20T14:12:59.876Z,2.95
2022-11-20T14:15:29.994Z,3.53
2022-11-20T14:17:57.732Z,4.45
2022-11-20T14:20:30.390Z,2.00
2022-11-20T14:22:57.824Z,5.15
2022-11-20T14:25:28.052Z,6.43
2022-11-20T14:27:57.347Z,3.25
2022-11-20T14:30:26.748Z,4.63
2022-11-20T14:32:57.894Z,4.10
2022-11-20T14:35:28.860Z,7.10
2022-11-20T14:37:57.342Z,7.75
2022-11-20T14:40:30.270Z,1.70
2022-11-20T14:42:58.886Z,4.25
2022-11-20T14:45:27.881Z,3.03
2022-11-20T14:47:59.300Z,3.67
2022-11-20T14:50:29.570Z,5.00
2022-11-20T14:52:59.087Z,4.28
2022-11-20T14:55:28.558Z,5.70
2022-11-20T14:58:01.098Z,3.42
2022-11-20T15:00:29.658Z,4.18
2022-11-20T15:02:57.073Z,6.28
2022-11-20T15:05:27.104Z,5.63
2022-11-20T15:08:08.321Z,2.22
2022-11-20T15:10:36.369Z,4.25
2022-11-20T15:13:12.376Z,4.03
2022-11-20T15:15:46.278Z,2.30
2022-11-20T15:18:16.153Z,2.60
2022-11-20T15:20:44.581Z,3.30
2022-11-20T15:23:16.387Z,8.23
2022-11-20T15:25:44.360Z,4.28
2022-11-20T15:28:19.500Z,3.45
2022-11-20T15:30:47.739Z,4.78
2022-11-20T15:33:16.251Z,4.22
2022-11-20T15:35:43.996Z,3.00
2022-11-20T15:38:11.495Z,2.90
2022-11-20T15:40:40.243Z,2.40
2022-11-20T15:43:13.453Z,2.25
2022-11-20T15:45:44.468Z,3.08
2022-11-20T15:48:14.272Z,4.25
2022-11-20T15:50:49.261Z,3.85
2022-11-20T15:53:16.699Z,2.45
2022-11-20T15:55:45.544Z,2.78
2022-11-20T15:58:12.964Z,4.25
2022-11-20T16:00:40.910Z,2.05
2022-11-20T16:03:11.162Z,0.75
2022-11-20T16:05:38.624Z,3.65
2022-11-20T16:08:11.257Z,1.70
2022-11-20T16:10:39.186Z,2.50
2022-11-20T16:13:32.354Z,3.70
2022-11-20T16:16:01.968Z,2.63
2022-11-20T16:18:29.401Z,1.60
2022-11-20T16:20:57.050Z,1.60
2022-11-20T16:23:24.498Z,1.13
2022-11-20T16:25:52.778Z,2.60
2022-11-20T16:28:21.684Z,1.50
2022-11-20T16:30:49.154Z,2.15
2022-11-20T16:33:18.885Z,1.73
2022-11-20T16:35:46.340Z,0.88
2022-11-20T16:38:13.771Z,0.80
2022-11-20T16:40:41.165Z,2.00
2022-11-20T16:43:11.573Z,0.77
2022-11-20T16:45:44.900Z,0.35
2022-11-20T16:48:17.774Z,0.40
2022-11-20T16:50:50.605Z,1.67
2022-11-20T16:53:18.640Z,0.65
2022-11-20T16:55:46.327Z,0.20
2022-11-20T16:58:13.867Z,0.38
2022-11-20T17:00:48.369Z,3.40
2022-11-20T17:03:18.828Z,1.85
2022-11-20T17:05:46.231Z,0.60
2022-11-20T17:08:13.641Z,0.20
2022-11-20T17:10:42.434Z,1.35
2022-11-20T17:13:09.865Z,0.60
2022-11-20T17:15:37.291Z,0.43
2022-11-20T17:18:06.234Z,0.93
2022-11-20T17:20:33.650Z,0.57
2022-11-20T17:23:01.083Z,0.47
2022-11-20T17:25:28.499Z,0.50
2022-11-20T17:27:55.918Z,0.30
2022-11-20T17:30:23.343Z,2.35
2022-11-20T17:32:50.762Z,0.52
2022-11-20T17:35:19.512Z,0.90
2022-11-20T17:37:46.921Z,1.40
2022-11-20T17:40:15.049Z,2.78
2022-11-20T17:42:42.455Z,1.83
2022-11-20T17:45:09.971Z,3.28
2022-11-20T17:47:37.790Z,8.20
2022-11-20T17:50:05.988Z,2.33
2022-11-20T17:52:34.768Z,0.95
2022-11-20T17:55:02.183Z,0.93
2022-11-20T17:57:47.203Z,9.63
2022-11-20T18:00:17.109Z,2.45
2022-11-20T18:02:44.661Z,1.13
2022-11-20T18:05:12.417Z,1.35
2022-11-20T18:07:42.009Z,1.88
2022-11-20T18:10:10.348Z,2.60
2022-11-20T18:12:37.766Z,3.80
2022-11-20T18:15:05.720Z,2.30
2022-11-20T18:17:33.183Z,1.38
2022-11-20T18:20:27.971Z,6.75
2022-11-20T18:22:49.462Z,3.75
2022-11-20T18:25:16.998Z,3.97
2022-11-20T18:27:45.165Z,2.78
2022-11-20T18:30:14.176Z,2.50
2022-11-20T18:32:42.571Z,6.25
2022-11-20T18:35:10.638Z,5.40
2022-11-20T18:37:38.065Z,6.60
2022-11-20T18:40:08.573Z,5.47
2022-11-20T18:42:55.600Z,3.53
2022-11-20T18:45:23.025Z,6.53
2022-11-20T18:47:50.449Z,4.95
2022-11-20T18:50:19.083Z,5.05
2022-11-20T18:52:47.783Z,5.22
2022-11-20T18:55:16.590Z,9.77
2022-11-20T18:57:44.248Z,7.70
2022-11-20T19:00:12.804Z,4.30
2022-11-20T19:02:42.781Z,6.13
2022-11-20T19:05:10.951Z,4.80
2022-11-20T19:07:38.445Z,2.60
2022-11-20T19:10:06.887Z,3.17
2022-11-20T19:12:35.682Z,3.63
2022-11-20T19:15:03.183Z,3.72
2022-11-20T19:17:30.676Z,6.50
2022-11-20T19:19:58.121Z,6.45
2022-11-20T19:22:25.557Z,3.60
2022-11-20T19:24:53.023Z,5.18
2022-11-20T19:27:20.587Z,5.28
2022-11-20T19:29:49.762Z,6.13
2022-11-20T19:32:17.228Z,4.35
2022-11-20T19:34:44.652Z,4.63
2022-11-20T19:37:12.137Z,2.28
2022-11-20T19:39:39.674Z,5.55
2022-11-20T19:42:07.119Z,4.72
2022-11-20T19:44:34.623Z,11.27
2022-11-20T19:47:08.919Z,7.82
2022-11-20T19:49:41.567Z,6.70
2022-11-20T19:52:09.266Z,10.48
2022-11-20T19:54:36.745Z,4.57
2022-11-20T19:57:04.211Z,3.67
2022-11-20T19:59:31.719Z,2.67
2022-11-20T20:01:59.265Z,6.82
2022-11-20T20:04:28.182Z,2.97
2022-11-20T20:06:56.019Z,3.40
2022-11-20T20:09:23.824Z,6.22
2022-11-20T20:11:51.441Z,2.80
2022-11-20T20:14:19.176Z,2.55
2022-11-20T20:16:46.683Z,3.35
2022-11-20T20:19:15.626Z,1.95
2022-11-20T20:21:45.202Z,3.00
2022-11-20T20:24:12.967Z,3.90
2022-11-20T20:26:40.933Z,4.10
2022-11-20T20:29:08.422Z,5.95
2022-11-20T20:31:36.151Z,1.80
2022-11-20T20:34:05.235Z,5.57
2022-11-20T20:36:32.933Z,1.80
2022-11-20T20:39:02.657Z,3.38
2022-11-20T20:41:30.252Z,1.95
2022-11-20T20:44:15.505Z,3.35
2022-11-20T20:46:43.669Z,0.43
2022-11-20T20:49:11.160Z,3.70
2022-11-20T20:51:38.749Z,2.70
2022-11-20T20:54:07.582Z,0.68
2022-11-20T20:56:35.259Z,2.10
2022-11-20T20:59:03.982Z,2.65
2022-11-20T21:01:31.531Z,3.05
2022-11-20T21:03:59.100Z,6.13
2022-11-20T21:06:26.650Z,3.65
2022-11-20T21:08:55.781Z,5.32
2022-11-20T21:11:24.921Z,5.25
2022-11-20T21:13:52.393Z,7.65
2022-11-20T21:16:22.220Z,5.32
2022-11-20T21:18:50.281Z,2.25
2022-11-20T21:21:36.477Z,5.88
2022-11-20T21:24:04.709Z,3.25
2022-11-20T21:26:33.504Z,2.22
2022-11-20T21:29:00.911Z,4.10
2022-11-20T21:31:29.833Z,3.70
2022-11-20T21:33:58.050Z,2.83
2022-11-20T21:36:27.201Z,5.22
2022-11-20T21:38:55.719Z,10.70
2022-11-20T21:41:24.408Z,5.80
2022-11-20T21:44:23.468Z,9.82
2022-11-20T21:46:42.766Z,14.23
2022-11-20T21:49:10.665Z,6.28
2022-11-20T21:51:38.566Z,5.00
2022-11-20T21:54:06.406Z,7.07
2022-11-20T21:56:33.895Z,8.93
2022-11-20T21:59:02.703Z,7.65
2022-11-20T22:01:31.658Z,9.23
2022-11-20T22:04:01.122Z,10.25
2022-11-20T22:06:33.303Z,7.28
2022-11-20T22:09:00.878Z,8.70
2022-11-20T22:11:28.516Z,9.43
2022-11-20T22:14:13.535Z,6.65
2022-11-20T22:16:42.367Z,9.10
2022-11-20T22:19:10.338Z,10.13
2022-11-20T22:21:40.395Z,10.18
2022-11-20T22:24:08.494Z,7.65
2022-11-20T22:26:40.335Z,10.05
2022-11-20T22:29:09.099Z,8.88
2022-11-20T22:31:36.541Z,12.52
2022-11-20T22:34:05.305Z,13.60
2022-11-20T22:36:33.077Z,8.38
2022-11-20T22:39:03.100Z,7.95
2022-11-20T22:41:30.923Z,8.05
2022-11-20T22:43:59.834Z,12.23
2022-11-20T22:46:29.126Z,10.30
2022-11-20T22:48:57.831Z,12.57
2022-11-20T22:51:27.875Z,5.88
2022-11-20T22:53:55.423Z,5.90
2022-11-20T22:56:23.312Z,5.25
2022-11-20T22:58:52.783Z,5.07
2022-11-20T23:01:21.920Z,4.93
2022-11-20T23:03:51.491Z,6.25
2022-11-20T23:06:20.747Z,4.72
2022-11-20T23:08:50.244Z,7.47
2022-11-20T23:11:19.581Z,3.38
2022-11-20T23:13:48.151Z,4.55
2022-11-20T23:16:17.074Z,6.35
2022-11-20T23:18:45.553Z,7.28
2022-11-20T23:21:15.137Z,10.23
2022-11-20T23:23:43.412Z,8.63
2022-11-20T23:26:13.897Z,6.40
2022-11-20T23:28:42.456Z,7.53
2022-11-20T23:31:10.717Z,7.60
2022-11-20T23:33:39.769Z,8.80
2022-11-20T23:36:08.299Z,11.13
2022-11-20T23:38:35.884Z,5.07
2022-11-20T23:41:03.405Z,10.73
2022-11-20T23:43:33.013Z,12.07
2022-11-20T23:46:02.019Z,15.98
2022-11-20T23:48:30.910Z,9.13
2022-11-20T23:50:58.631Z,13.23
2022-11-20T23:53:26.467Z,10.55
2022-11-20T23:55:55.802Z,9.32
2022-11-20T23:58:25.062Z,10.70
